createdAt,value
2024-03-01T00:00:23.293Z,21.27
2024-03-01T00:03:16.015Z,21.77
2024-03-01T00:06:08.747Z,17.13
2024-03-01T00:09:01.298Z,16.75
2024-03-01T00:11:54.116Z,19.73
2024-03-01T00:14:46.961Z,18.40
2024-03-01T00:17:39.687Z,17.98
2024-03-01T00:20:32.609Z,20.50
2024-03-01T00:23:27.841Z,16.00
2024-03-01T00:26:21.156Z,17.20
2024-03-01T00:29:14.199Z,16.48
2024-03-01T00:32:07.179Z,19.40
2024-03-01T00:34:59.965Z,15.10
2024-03-01T00:37:53.500Z,16.27
2024-03-01T00:40:45.783Z,14.55
2024-03-01T00:43:39.360Z,16.05
2024-03-01T00:46:31.677Z,12.88
2024-03-01T00:49:24.085Z,14.35
2024-03-01T00:52:16.871Z,14.68
2024-03-01T00:55:08.971Z,17.00
2024-03-01T00:58:01.384Z,20.42
2024-03-01T01:00:53.920Z,17.73
2024-03-01T01:03:46.124Z,15.88
2024-03-01T01:06:38.892Z,22.63
2024-03-01T01:09:30.773Z,16.30
2024-03-01T01:12:22.945Z,20.55
2024-03-01T01:15:15.064Z,17.52
2024-03-01T01:18:07.960Z,16.30
2024-03-01T01:21:00.085Z,18.88
2024-03-01T01:23:53.210Z,18.48
2024-03-01T01:26:45.883Z,17.45
2024-03-01T01:29:38.085Z,21.60
2024-03-01T01:32:29.963Z,19.67
2024-03-01T01:35:22.066Z,20.77
2024-03-01T01:38:14.045Z,18.55
2024-03-01T01:41:07.125Z,17.83
2024-03-01T01:44:00.173Z,16.35
2024-03-01T01:46:53.563Z,20.17
2024-03-01T01:49:46.473Z,23.17
2024-03-01T01:52:39.704Z,18.25
2024-03-01T01:55:33.446Z,18.67
2024-03-01T01:58:26.254Z,20.63
2024-03-01T02:01:19.968Z,18.65
2024-03-01T02:04:11.964Z,19.17
2024-03-01T02:07:05.629Z,15.77
2024-03-01T02:09:58.120Z,25.75
2024-03-01T02:12:57.306Z,23.88
2024-03-01T02:15:50.218Z,19.58
2024-03-01T02:18:42.876Z,18.17
2024-03-01T02:21:37.652Z,17.55
2024-03-01T02:24:30.184Z,23.85
2024-03-01T02:27:22.116Z,23.50
2024-03-01T02:30:15.360Z,18.98
2024-03-01T02:33:08.382Z,24.60
2024-03-01T02:36:01.305Z,20.08
2024-03-01T02:38:54.193Z,28.83
2024-03-01T02:41:50.315Z,23.23
2024-03-01T02:44:43.360Z,21.92
2024-03-01T02:47:36.505Z,22.33
2024-03-01T02:50:29.331Z,23.85
2024-03-01T02:53:22.284Z,20.83
2024-03-01T02:56:15.237Z,26.48
2024-03-01T02:59:06.991Z,26.50
2024-03-01T03:02:00.065Z,28.48
2024-03-01T03:04:54.488Z,26.98
2024-03-01T03:07:48.408Z,20.42
2024-03-01T03:10:41.605Z,24.13
2024-03-01T03:13:34.471Z,24.88
2024-03-01T03:16:27.230Z,29.00
2024-03-01T03:19:20.342Z,25.55
2024-03-01T03:22:13.057Z,24.10
2024-03-01T03:25:06.337Z,33.63
2024-03-01T03:27:59.062Z,28.52
2024-03-01T03:30:50.956Z,22.33
2024-03-01T03:33:43.188Z,24.20
2024-03-01T03:36:35.218Z,27.40
2024-03-01T03:39:27.101Z,36.85
2024-03-01T03:42:19.107Z,25.02
2024-03-01T03:45:12.081Z,33.08
2024-03-01T03:48:05.824Z,24.23
2024-03-01T03:50:58.429Z,27.10
2024-03-01T03:53:51.307Z,37.45
2024-03-01T03:56:46.352Z,32.05
2024-03-01T03:59:38.318Z,26.10
2024-03-01T04:02:30.794Z,32.30
2024-03-01T04:05:23.193Z,24.88
2024-03-01T04:08:15.353Z,35.28
2024-03-01T04:11:08.112Z,27.20
2024-03-01T04:14:00.314Z,26.17
2024-03-01T04:16:52.380Z,26.40
2024-03-01T04:19:44.263Z,25.52
2024-03-01T04:22:36.421Z,26.42
2024-03-01T04:25:29.516Z,26.13
2024-03-01T04:28:23.373Z,19.58
2024-03-01T04:31:16.552Z,26.60
2024-03-01T04:34:09.554Z,24.50
2024-03-01T04:37:02.636Z,34.78
2024-03-01T04:39:55.733Z,46.15
2024-03-01T04:42:48.640Z,49.67
2024-03-01T04:45:41.298Z,43.97
2024-03-01T04:48:33.517Z,39.08
2024-03-01T04:51:26.597Z,31.67
2024-03-01T04:54:19.269Z,25.00
2024-03-01T04:57:11.573Z,27.10
2024-03-01T05:00:13.278Z,26.58
2024-03-01T05:03:08.882Z,27.80
2024-03-01T05:06:04.503Z,29.00
2024-03-01T05:08:57.868Z,29.52
2024-03-01T05:11:50.610Z,25.55
2024-03-01T05:14:43.769Z,22.30
2024-03-01T05:17:40.287Z,21.92
2024-03-01T05:20:32.363Z,31.38
2024-03-01T05:23:24.426Z,24.15
2024-03-01T05:26:16.824Z,27.60
2024-03-01T05:29:09.517Z,22.13
2024-03-01T05:32:01.654Z,27.92
2024-03-01T05:34:54.465Z,28.02
2024-03-01T05:37:47.332Z,27.65
2024-03-01T05:40:46.734Z,24.20
2024-03-01T05:43:44.778Z,29.23
2024-03-01T05:46:37.676Z,24.20
2024-03-01T05:49:30.556Z,27.02
2024-03-01T05:52:22.629Z,23.60
2024-03-01T05:55:14.625Z,25.42
2024-03-01T05:58:07.493Z,34.80
2024-03-01T06:01:00.876Z,34.90
2024-03-01T06:03:53.554Z,31.65
2024-03-01T06:06:45.670Z,23.38
2024-03-01T06:09:39.422Z,22.77
2024-03-01T06:12:31.539Z,30.48
2024-03-01T06:15:23.374Z,24.80
2024-03-01T06:18:15.627Z,25.73
2024-03-01T06:21:07.527Z,29.73
2024-03-01T06:23:59.774Z,34.50
2024-03-01T06:26:55.754Z,35.90
2024-03-01T06:29:50.044Z,28.73
2024-03-01T06:32:44.492Z,24.88
2024-03-01T06:35:37.062Z,31.08
2024-03-01T06:38:29.571Z,31.15
2024-03-01T06:41:21.669Z,34.15
2024-03-01T06:44:15.099Z,25.83
2024-03-01T06:47:14.878Z,30.65
2024-03-01T06:50:10.264Z,31.45
2024-03-01T06:53:02.984Z,27.67
2024-03-01T06:55:56.372Z,24.85
2024-03-01T06:58:49.406Z,23.42
2024-03-01T07:01:41.771Z,24.85
2024-03-01T07:04:33.840Z,33.58
2024-03-01T07:07:26.541Z,24.73
2024-03-01T07:10:18.794Z,30.27
2024-03-01T07:13:11.567Z,24.00
2024-03-01T07:16:03.861Z,39.50
2024-03-01T07:18:56.829Z,39.65
2024-03-01T07:21:49.842Z,30.25
2024-03-01T07:24:42.006Z,30.20
2024-03-01T07:27:35.510Z,35.17
2024-03-01T07:30:28.218Z,32.45
2024-03-01T07:33:21.507Z,34.22
2024-03-01T07:36:14.054Z,26.02
2024-03-01T07:39:06.878Z,39.55
2024-03-01T07:42:00.327Z,32.35
2024-03-01T07:44:57.030Z,36.97
2024-03-01T07:47:49.908Z,29.50
2024-03-01T07:50:43.048Z,27.00
2024-03-01T07:53:35.923Z,48.97
2024-03-01T07:56:28.774Z,36.55
2024-03-01T07:59:20.746Z,32.85
2024-03-01T08:02:13.058Z,41.50
2024-03-01T08:05:07.741Z,31.90
2024-03-01T08:07:59.844Z,34.30
2024-03-01T08:10:51.782Z,28.67
2024-03-01T08:13:43.730Z,29.90
2024-03-01T08:16:36.282Z,35.00
2024-03-01T08:19:37.620Z,37.35
2024-03-01T08:22:30.055Z,28.20
2024-03-01T08:25:22.968Z,35.97
2024-03-01T08:28:27.326Z,52.47
2024-03-01T08:31:29.705Z,30.90
2024-03-01T08:34:25.785Z,39.78
2024-03-01T08:37:25.452Z,40.00
2024-03-01T08:40:53.105Z,37.10
2024-03-01T08:43:45.886Z,40.33
2024-03-01T08:46:38.017Z,33.78
2024-03-01T08:49:54.686Z,41.38
2024-03-01T08:52:49.101Z,40.35
2024-03-01T08:55:45.147Z,46.97
2024-03-01T08:58:39.403Z,35.58
2024-03-01T09:01:47.385Z,36.75
2024-03-01T09:04:39.952Z,37.00
2024-03-01T09:07:33.177Z,63.05
2024-03-01T09:10:30.560Z,44.58
2024-03-01T09:13:26.229Z,37.25
2024-03-01T09:16:20.619Z,33.13
2024-03-01T09:19:23.014Z,32.03
2024-03-01T09:22:17.641Z,29.77
2024-03-01T09:25:47.586Z,25.58
2024-03-01T09:28:40.156Z,29.65
2024-03-01T09:31:34.320Z,32.45
2024-03-01T09:34:35.627Z,28.05
2024-03-01T09:37:28.432Z,23.95
2024-03-01T09:40:39.361Z,27.58
2024-03-01T09:44:03.732Z,24.23
2024-03-01T09:47:39.140Z,25.45
2024-03-01T09:50:55.649Z,21.52
2024-03-01T09:54:03.265Z,21.00
2024-03-01T09:57:18.753Z,31.02
2024-03-01T10:00:24.018Z,31.13
2024-03-01T10:03:34.528Z,30.45
2024-03-01T10:07:13.414Z,33.83
2024-03-01T10:10:27.300Z,24.52
2024-03-01T10:13:44.379Z,19.52
2024-03-01T10:17:14.283Z,26.65
2024-03-01T10:20:22.678Z,20.77
2024-03-01T10:23:40.117Z,22.90
2024-03-01T10:26:34.802Z,19.92
2024-03-01T10:29:45.948Z,19.85
2024-03-01T10:32:54.674Z,26.52
2024-03-01T10:36:26.347Z,25.73
2024-03-01T10:39:31.187Z,25.90
2024-03-01T10:42:27.457Z,17.63
2024-03-01T10:46:01.594Z,20.85
2024-03-01T10:48:59.946Z,25.70
2024-03-01T10:52:12.038Z,19.92
2024-03-01T10:55:11.753Z,19.67
2024-03-01T10:58:46.194Z,15.98
2024-03-01T11:02:02.092Z,21.27
2024-03-01T11:05:08.100Z,17.42
2024-03-01T11:08:38.597Z,17.77
2024-03-01T11:11:49.706Z,15.50
2024-03-01T11:14:53.441Z,17.23
2024-03-01T11:17:51.376Z,15.45
2024-03-01T11:20:54.372Z,15.43
2024-03-01T11:24:00.701Z,17.20
2024-03-01T11:26:56.992Z,13.52
2024-03-01T11:30:00.708Z,15.73
2024-03-01T11:33:02.347Z,17.27
2024-03-01T11:36:35.623Z,13.82
2024-03-01T11:39:57.704Z,17.30
2024-03-01T11:43:12.432Z,11.98
2024-03-01T11:46:27.697Z,10.32
2024-03-01T11:49:35.005Z,8.55
2024-03-01T11:53:10.672Z,14.63
2024-03-01T11:56:20.596Z,11.52
2024-03-01T11:59:49.487Z,11.90
2024-03-01T12:03:09.426Z,11.30
2024-03-01T12:06:07.041Z,11.80
2024-03-01T12:09:17.554Z,10.73
2024-03-01T12:12:45.818Z,9.60
2024-03-01T12:16:13.296Z,11.05
2024-03-01T12:19:21.002Z,10.02
2024-03-01T12:22:48.792Z,10.80
2024-03-01T12:25:41.651Z,9.30
2024-03-01T12:29:30.495Z,10.25
2024-03-01T12:33:07.484Z,12.18
2024-03-01T12:36:22.934Z,9.82
2024-03-01T12:39:22.016Z,6.38
2024-03-01T12:42:34.602Z,7.65
2024-03-01T12:46:26.306Z,6.57
2024-03-01T12:50:06.694Z,11.82
2024-03-01T12:53:33.148Z,7.70
2024-03-01T12:56:49.197Z,9.13
2024-03-01T13:00:16.841Z,6.03
2024-03-01T13:03:39.719Z,7.75
2024-03-01T13:06:35.105Z,9.40
2024-03-01T13:09:35.212Z,6.23
2024-03-01T13:12:29.158Z,8.23
2024-03-01T13:15:26.768Z,6.68
2024-03-01T13:18:32.101Z,5.68
2024-03-01T13:21:59.751Z,6.57
2024-03-01T13:25:01.144Z,7.22
2024-03-01T13:28:03.286Z,11.07
2024-03-01T13:31:06.434Z,10.20
2024-03-01T13:34:00.624Z,8.05
2024-03-01T13:37:36.398Z,8.05
2024-03-01T13:40:41.689Z,8.52
2024-03-01T13:43:38.760Z,10.98
2024-03-01T13:46:40.923Z,10.35
2024-03-01T13:49:41.436Z,7.25
2024-03-01T13:52:40.588Z,10.13
2024-03-01T13:55:38.688Z,8.10
2024-03-01T13:58:33.834Z,7.20
2024-03-01T14:01:28.849Z,9.95
2024-03-01T14:04:21.841Z,7.13
2024-03-01T14:07:16.483Z,6.32
2024-03-01T14:10:10.116Z,4.57
2024-03-01T14:13:04.750Z,5.75
2024-03-01T14:16:08.647Z,4.33
2024-03-01T14:19:01.780Z,4.50
2024-03-01T14:21:55.017Z,6.75
2024-03-01T14:24:47.589Z,6.28
2024-03-01T14:27:40.982Z,7.40
2024-03-01T14:30:33.993Z,4.38
2024-03-01T14:33:28.388Z,7.68
2024-03-01T14:36:20.746Z,5.82
2024-03-01T14:39:15.216Z,5.40
2024-03-01T14:42:22.746Z,7.65
2024-03-01T14:45:15.317Z,6.38
2024-03-01T14:48:10.153Z,6.20
2024-03-01T14:51:11.017Z,4.30
2024-03-01T14:54:03.539Z,6.05
2024-03-01T14:56:56.296Z,8.77
2024-03-01T14:59:48.732Z,4.40
2024-03-01T15:02:41.373Z,7.75
2024-03-01T15:05:36.646Z,4.68
2024-03-01T15:08:32.810Z,5.60
2024-03-01T15:11:28.428Z,4.50
2024-03-01T15:17:20.001Z,5.03
2024-03-01T15:20:13.321Z,8.10
2024-03-01T15:23:07.038Z,5.22
2024-03-01T15:26:07.604Z,7.05
2024-03-01T15:28:59.891Z,5.03
2024-03-01T15:31:53.451Z,6.55
2024-03-01T15:34:45.935Z,6.68
2024-03-01T15:37:40.115Z,7.05
2024-03-01T15:40:36.850Z,7.50
2024-03-01T15:43:28.921Z,7.40
2024-03-01T15:46:26.824Z,6.60
2024-03-01T15:49:18.912Z,6.25
2024-03-01T15:52:10.976Z,6.80
2024-03-01T15:55:06.784Z,7.30
2024-03-01T15:57:59.174Z,5.00
2024-03-01T16:00:51.968Z,4.80
2024-03-01T16:03:45.573Z,5.60
2024-03-01T16:06:39.263Z,7.47
2024-03-01T16:09:39.776Z,6.22
2024-03-01T16:12:31.581Z,6.43
2024-03-01T16:15:26.099Z,8.18
2024-03-01T16:18:19.385Z,5.82
2024-03-01T16:21:12.766Z,5.68
2024-03-01T16:24:07.019Z,4.72
2024-03-01T16:27:01.257Z,6.72
2024-03-01T16:29:53.943Z,6.00
2024-03-01T16:32:46.937Z,7.50
2024-03-01T16:35:43.990Z,6.45
2024-03-01T16:38:42.293Z,7.45
2024-03-01T16:41:40.573Z,6.10
2024-03-01T16:44:40.654Z,8.75
2024-03-01T16:47:36.524Z,6.50
2024-03-01T16:50:29.619Z,6.68
2024-03-01T16:53:21.785Z,6.05
2024-03-01T16:56:14.303Z,6.60
2024-03-01T16:59:08.693Z,7.30
2024-03-01T17:02:01.904Z,5.25
2024-03-01T17:04:54.824Z,6.80
2024-03-01T17:07:49.527Z,7.90
2024-03-01T17:10:43.015Z,8.68
2024-03-01T17:13:35.924Z,6.00
2024-03-01T17:16:33.450Z,6.70
2024-03-01T17:19:26.278Z,10.73
2024-03-01T17:22:19.551Z,6.25
2024-03-01T17:25:12.155Z,6.65
2024-03-01T17:28:05.333Z,6.95
2024-03-01T17:30:57.763Z,7.97
2024-03-01T17:33:50.465Z,7.18
2024-03-01T17:36:43.039Z,7.97
2024-03-01T17:39:35.011Z,7.60
2024-03-01T17:42:27.038Z,10.80
2024-03-01T17:45:20.292Z,8.70
2024-03-01T17:48:13.404Z,6.72
2024-03-01T17:51:06.511Z,8.75
2024-03-01T17:54:00.818Z,11.32
2024-03-01T17:56:53.063Z,8.88
2024-03-01T17:59:45.046Z,11.57
2024-03-01T18:02:37.233Z,14.95
2024-03-01T18:05:29.447Z,13.00
2024-03-01T18:08:22.414Z,11.68
2024-03-01T18:11:15.235Z,10.90
2024-03-01T18:14:09.043Z,8.85
2024-03-01T18:17:01.164Z,7.35
2024-03-01T18:19:58.356Z,11.32
2024-03-01T18:22:51.432Z,9.52
2024-03-01T18:25:44.423Z,11.75
2024-03-01T18:28:38.432Z,12.38
2024-03-01T18:31:31.327Z,12.45
2024-03-01T18:34:24.763Z,9.30
2024-03-01T18:37:18.454Z,9.90
2024-03-01T18:40:11.272Z,10.35
2024-03-01T18:43:03.280Z,14.35
2024-03-01T18:45:55.066Z,11.52
2024-03-01T18:48:47.271Z,12.80
2024-03-01T18:51:39.607Z,12.07
2024-03-01T18:54:34.048Z,13.50
2024-03-01T18:57:25.973Z,16.42
2024-03-01T19:00:18.827Z,14.57
2024-03-01T19:03:12.145Z,17.15
2024-03-01T19:06:04.695Z,19.23
2024-03-01T19:08:57.225Z,16.88
2024-03-01T19:11:52.090Z,16.13
2024-03-01T19:14:44.377Z,16.98
2024-03-01T19:17:38.020Z,18.42
2024-03-01T19:20:31.249Z,16.63
2024-03-01T19:23:23.270Z,16.60
2024-03-01T19:26:16.353Z,16.13
2024-03-01T19:29:09.655Z,15.65
2024-03-01T19:32:02.903Z,17.40
2024-03-01T19:34:55.202Z,15.07
2024-03-01T19:37:48.113Z,11.95
2024-03-01T19:40:40.488Z,16.45
2024-03-01T19:43:33.539Z,12.25
2024-03-01T19:46:26.388Z,10.90
2024-03-01T19:49:20.094Z,15.60
2024-03-01T19:52:15.628Z,14.65
2024-03-01T19:55:08.608Z,12.40
2024-03-01T19:58:01.284Z,14.57
2024-03-01T20:00:53.348Z,13.18
2024-03-01T20:03:45.622Z,10.82
2024-03-01T20:06:38.561Z,12.27
2024-03-01T20:09:31.932Z,17.02
2024-03-01T20:12:24.321Z,19.05
2024-03-01T20:15:16.882Z,22.58
2024-03-01T20:18:09.499Z,14.98
2024-03-01T20:21:06.705Z,16.77
2024-03-01T20:23:59.779Z,19.33
2024-03-01T20:26:53.295Z,12.13
2024-03-01T20:29:45.675Z,14.80
2024-03-01T20:32:38.437Z,24.17
2024-03-01T20:35:30.416Z,20.33
2024-03-01T20:38:22.579Z,19.38
2024-03-01T20:41:15.297Z,17.23
2024-03-01T20:44:07.322Z,20.27
2024-03-01T20:46:59.539Z,21.50
2024-03-01T20:49:51.342Z,23.08
2024-03-01T20:52:43.687Z,35.25
2024-03-01T20:55:38.990Z,27.27
2024-03-01T20:58:31.666Z,27.63
2024-03-01T21:01:24.435Z,19.40
2024-03-01T21:04:16.661Z,22.50
2024-03-01T21:07:09.588Z,20.38
2024-03-01T21:10:07.000Z,19.10
2024-03-01T21:12:59.644Z,17.60
2024-03-01T21:15:51.627Z,17.33
2024-03-01T21:18:43.553Z,18.10
2024-03-01T21:24:32.549Z,23.05
2024-03-01T21:27:24.834Z,37.75
2024-03-01T21:30:18.607Z,22.48
2024-03-01T21:33:10.713Z,24.05
2024-03-01T21:36:04.046Z,19.48
2024-03-01T21:38:56.592Z,39.47
2024-03-01T21:41:48.582Z,25.77
2024-03-01T21:44:43.811Z,30.13
2024-03-01T21:50:29.764Z,26.48
2024-03-01T21:53:22.305Z,21.48
2024-03-01T21:56:14.777Z,36.45
2024-03-01T21:59:07.933Z,44.92
2024-03-01T22:02:02.483Z,39.10
2024-03-01T22:04:59.690Z,43.00
2024-03-01T22:08:02.371Z,36.03
2024-03-01T22:10:59.609Z,34.13
2024-03-01T22:13:51.641Z,36.25
2024-03-01T22:16:43.692Z,21.75
2024-03-01T22:19:35.738Z,30.48
2024-03-01T22:22:28.536Z,28.42
2024-03-01T22:25:20.874Z,35.95
2024-03-01T22:28:14.998Z,27.83
2024-03-01T22:31:07.696Z,25.80
2024-03-01T22:34:00.217Z,28.83
2024-03-01T22:36:53.301Z,39.17
2024-03-01T22:39:50.065Z,27.15
2024-03-01T22:42:45.653Z,33.67
2024-03-01T22:45:37.986Z,36.67
2024-03-01T22:48:32.150Z,29.90
2024-03-01T22:51:24.962Z,34.13
2024-03-01T22:54:25.250Z,29.73
2024-03-01T22:57:26.659Z,30.98
2024-03-01T23:00:20.711Z,30.25
2024-03-01T23:03:18.615Z,34.88
2024-03-01T23:06:16.682Z,37.55
2024-03-01T23:09:19.035Z,45.05
2024-03-01T23:12:12.716Z,29.38
2024-03-01T23:15:05.589Z,36.08
2024-03-01T23:17:57.846Z,28.80
2024-03-01T23:20:50.383Z,45.97
2024-03-01T23:23:43.381Z,33.15
2024-03-01T23:26:35.718Z,32.85
2024-03-01T23:29:27.567Z,27.85
2024-03-01T23:32:19.637Z,39.38
2024-03-01T23:35:11.716Z,26.08
2024-03-01T23:38:04.024Z,35.83
2024-03-01T23:40:57.382Z,29.58
2024-03-01T23:43:50.089Z,31.65
2024-03-01T23:46:43.077Z,28.33
2024-03-01T23:49:35.805Z,29.23
2024-03-01T23:52:28.739Z,30.17
2024-03-01T23:55:22.295Z,33.92
2024-03-01T23:58:15.177Z,28.48
